createdAt,value
2022-11-02T00:01:21.609Z,2.35
2022-11-02T00:03:55.955Z,2.43
2022-11-02T00:06:29.126Z,2.49
2022-11-02T00:09:02.390Z,2.55
2022-11-02T00:11:37.377Z,2.58
2022-11-02T00:14:10.805Z,2.53
2022-11-02T00:16:44.065Z,2.44
2022-11-02T00:19:17.337Z,2.37
2022-11-02T00:21:50.814Z,2.31
2022-11-02T00:24:24.205Z,2.34
2022-11-02T00:26:57.355Z,2.34
2022-11-02T00:29:33.849Z,2.33
2022-11-02T00:32:05.707Z,2.35
2022-11-02T00:34:39.300Z,2.43
2022-11-02T00:37:12.896Z,2.52
2022-11-02T00:39:46.215Z,2.58
2022-11-02T00:42:19.363Z,2.64
2022-11-02T00:44:52.501Z,2.68
2022-11-02T00:47:25.518Z,2.71
2022-11-02T00:49:59.064Z,2.74
2022-11-02T00:52:32.535Z,2.77
2022-11-02T00:55:07.094Z,2.77
2022-11-02T00:57:41.562Z,2.70
2022-11-02T01:00:17.248Z,2.61
2022-11-02T01:02:50.394Z,2.61
2022-11-02T01:05:23.483Z,2.60
2022-11-02T01:07:57.136Z,2.63
2022-11-02T01:10:30.219Z,2.67
2022-11-02T01:13:03.373Z,2.73
2022-11-02T01:15:38.794Z,2.69
2022-11-02T01:18:12.054Z,2.65
2022-11-02T01:20:45.198Z,2.67
2022-11-02T01:23:18.209Z,2.63
2022-11-02T01:25:51.219Z,2.56
2022-11-02T01:28:24.953Z,2.55
2022-11-02T01:30:59.004Z,2.57
2022-11-02T01:33:32.410Z,2.62
2022-11-02T01:36:07.473Z,2.66
2022-11-02T01:38:40.955Z,2.70
2022-11-02T01:41:14.471Z,2.67
2022-11-02T01:43:49.896Z,2.60
2022-11-02T01:46:26.189Z,2.52
2022-11-02T01:49:03.849Z,2.44
2022-11-02T01:51:39.720Z,2.43
2022-11-02T01:54:15.701Z,2.42
2022-11-02T01:56:51.836Z,2.37
2022-11-02T01:59:27.681Z,2.37
2022-11-02T02:02:00.833Z,2.37
2022-11-02T02:04:35.740Z,2.39
2022-11-02T02:07:09.097Z,2.41
2022-11-02T02:09:44.159Z,2.39
2022-11-02T02:12:17.285Z,2.40
2022-11-02T02:14:50.771Z,2.44
2022-11-02T02:17:39.289Z,2.49
2022-11-02T02:20:18.367Z,2.45
2022-11-02T02:23:40.233Z,2.43
2022-11-02T02:26:51.538Z,2.45
2022-11-02T02:29:27.221Z,2.46
2022-11-02T02:32:03.145Z,2.46
2022-11-02T02:34:39.163Z,2.51
2022-11-02T02:39:59.082Z,2.71
2022-11-02T02:42:35.862Z,2.61
2022-11-02T02:47:57.544Z,2.78
2022-11-02T02:50:33.341Z,2.69
2022-11-02T02:53:09.149Z,2.69
2022-11-02T02:55:45.411Z,2.61
2022-11-02T02:58:22.189Z,2.58
2022-11-02T03:00:56.494Z,2.63
2022-11-02T03:03:31.468Z,2.70
2022-11-02T03:06:09.128Z,2.73
2022-11-02T03:08:46.707Z,2.67
2022-11-02T03:11:23.400Z,2.60
2022-11-02T03:14:11.165Z,2.58
2022-11-02T03:16:54.737Z,2.59
2022-11-02T03:19:32.257Z,2.58
2022-11-02T03:22:08.238Z,2.63
2022-11-02T03:24:44.175Z,2.63
2022-11-02T03:27:21.206Z,2.66
2022-11-02T03:29:57.679Z,2.67
2022-11-02T03:32:33.703Z,2.72
2022-11-02T03:35:09.988Z,2.74
2022-11-02T03:37:46.348Z,2.75
2022-11-02T03:43:05.019Z,2.90
2022-11-02T03:45:42.199Z,2.79
2022-11-02T03:48:18.408Z,2.81
2022-11-02T03:50:53.790Z,2.83
2022-11-02T03:53:29.817Z,2.83
2022-11-02T03:56:06.211Z,2.78
2022-11-02T03:58:40.510Z,2.71
2022-11-02T04:01:15.852Z,2.72
2022-11-02T04:03:50.249Z,2.73
2022-11-02T04:06:25.540Z,2.67
2022-11-02T04:08:58.428Z,2.67
2022-11-02T04:11:51.146Z,2.65
2022-11-02T04:14:40.039Z,2.64
2022-11-02T04:17:35.223Z,2.67
2022-11-02T04:20:12.120Z,2.72
2022-11-02T04:23:02.878Z,2.74
2022-11-02T04:25:35.969Z,2.73
2022-11-02T04:28:19.707Z,2.68
2022-11-02T04:30:54.420Z,2.69
2022-11-02T04:33:35.395Z,2.70
2022-11-02T04:36:19.257Z,2.71
2022-11-02T04:38:54.125Z,2.73
2022-11-02T04:41:44.582Z,2.74
2022-11-02T04:44:31.150Z,2.70
2022-11-02T04:47:06.155Z,2.71
2022-11-02T04:49:40.173Z,2.68
2022-11-02T04:52:14.773Z,2.70
2022-11-02T04:54:49.439Z,2.73
2022-11-02T04:57:22.737Z,2.77
2022-11-02T04:59:55.876Z,2.78
2022-11-02T05:02:29.216Z,2.75
2022-11-02T05:05:02.917Z,2.79
2022-11-02T05:07:37.267Z,2.83
2022-11-02T05:10:11.206Z,2.91
2022-11-02T05:12:44.191Z,2.95
2022-11-02T05:15:17.762Z,3.00
2022-11-02T05:17:51.918Z,3.00
2022-11-02T05:20:25.115Z,3.00
2022-11-02T05:22:59.241Z,2.89
2022-11-02T05:25:32.227Z,2.87
2022-11-02T05:28:05.673Z,2.87
2022-11-02T05:30:38.970Z,2.93
2022-11-02T05:33:11.854Z,3.02
2022-11-02T05:35:45.216Z,3.02
2022-11-02T05:38:18.297Z,3.07
2022-11-02T05:40:54.905Z,3.17
2022-11-02T05:43:29.393Z,3.28
2022-11-02T05:46:04.699Z,3.38
2022-11-02T05:48:38.286Z,3.47
2022-11-02T05:51:12.765Z,3.51
2022-11-02T05:53:46.060Z,3.44
2022-11-02T05:56:24.810Z,3.38
2022-11-02T05:58:56.032Z,3.39
2022-11-02T06:01:29.407Z,3.38
2022-11-02T06:04:02.823Z,3.38
2022-11-02T06:06:36.239Z,3.36
2022-11-02T06:09:10.179Z,3.40
2022-11-02T06:11:43.746Z,3.47
2022-11-02T06:14:17.216Z,3.52
2022-11-02T06:16:50.547Z,3.56
2022-11-02T06:19:24.168Z,3.57
2022-11-02T06:21:57.845Z,3.54
2022-11-02T06:24:31.155Z,3.44
2022-11-02T06:27:04.954Z,3.31
2022-11-02T06:29:38.810Z,3.24
2022-11-02T06:32:12.116Z,3.30
2022-11-02T06:34:45.505Z,3.36
2022-11-02T06:37:19.009Z,3.41
2022-11-02T06:39:52.423Z,3.44
2022-11-02T06:42:26.697Z,3.51
2022-11-02T06:45:02.007Z,3.55
2022-11-02T06:47:37.376Z,3.64
2022-11-02T06:50:12.291Z,3.66
2022-11-02T06:52:47.270Z,3.54
2022-11-02T06:55:21.085Z,3.50
2022-11-02T06:57:54.971Z,3.44
2022-11-02T07:00:29.804Z,3.39
2022-11-02T07:03:05.364Z,3.50
2022-11-02T07:05:39.404Z,3.63
2022-11-02T07:08:12.927Z,3.68
2022-11-02T07:10:46.291Z,3.61
2022-11-02T07:13:20.010Z,3.50
2022-11-02T07:15:56.127Z,3.42
2022-11-02T07:18:29.686Z,3.41
2022-11-02T07:21:03.338Z,3.30
2022-11-02T07:23:36.711Z,3.34
2022-11-02T07:26:10.043Z,3.34
2022-11-02T07:28:43.550Z,3.26
2022-11-02T07:31:17.248Z,3.29
2022-11-02T07:33:50.710Z,3.39
2022-11-02T07:36:24.152Z,3.42
2022-11-02T07:38:57.558Z,3.34
2022-11-02T07:41:31.150Z,3.36
2022-11-02T07:44:04.986Z,3.44
2022-11-02T07:46:42.626Z,3.50
2022-11-02T07:49:21.049Z,3.48
2022-11-02T07:51:51.303Z,3.37
2022-11-02T07:54:24.662Z,3.32
2022-11-02T07:56:58.232Z,3.43
2022-11-02T07:59:31.742Z,3.66
2022-11-02T08:02:05.469Z,3.88
2022-11-02T08:04:42.262Z,3.99
2022-11-02T08:07:14.056Z,3.98
2022-11-02T08:09:47.389Z,3.94
2022-11-02T08:12:20.991Z,3.85
2022-11-02T08:14:54.561Z,3.78
2022-11-02T08:17:28.317Z,3.64
2022-11-02T08:20:01.506Z,3.62
2022-11-02T08:22:36.268Z,3.70
2022-11-02T08:25:11.280Z,3.80
2022-11-02T08:27:44.701Z,3.86
2022-11-02T08:30:18.346Z,3.91
2022-11-02T08:32:56.583Z,4.09
2022-11-02T08:35:26.779Z,4.19
2022-11-02T08:38:00.812Z,4.22
2022-11-02T08:40:34.763Z,4.28
2022-11-02T08:43:09.750Z,4.39
2022-11-02T08:48:19.766Z,4.65
2022-11-02T08:50:53.260Z,4.73
2022-11-02T08:53:26.732Z,4.82
2022-11-02T08:56:01.076Z,4.87
2022-11-02T08:58:34.464Z,5.03
2022-11-02T09:01:08.152Z,5.11
2022-11-02T09:03:41.803Z,5.12
2022-11-02T09:06:15.358Z,5.07
2022-11-02T09:08:49.203Z,4.94
2022-11-02T09:11:22.644Z,4.84
2022-11-02T09:13:57.226Z,4.72
2022-11-02T09:16:31.237Z,4.52
2022-11-02T09:19:04.739Z,4.40
2022-11-02T09:21:38.458Z,4.39
2022-11-02T09:24:12.889Z,4.36
2022-11-02T09:26:46.405Z,4.40
2022-11-02T09:29:19.836Z,4.35
2022-11-02T09:31:53.430Z,4.50
2022-11-02T09:34:27.208Z,4.69
2022-11-02T09:37:01.447Z,4.80
2022-11-02T09:39:34.925Z,4.71
2022-11-02T09:42:11.441Z,4.52
2022-11-02T09:44:49.745Z,4.43
2022-11-02T09:48:10.896Z,4.42
2022-11-02T09:50:03.591Z,4.35
2022-11-02T09:52:39.892Z,4.41
2022-11-02T09:55:17.473Z,4.50
2022-11-02T09:57:53.674Z,4.56
2022-11-02T10:00:28.478Z,4.69
2022-11-02T10:03:05.137Z,4.79
2022-11-02T10:05:43.697Z,4.82
2022-11-02T10:08:33.886Z,4.93
2022-11-02T10:11:19.114Z,4.96
2022-11-02T10:13:56.865Z,4.82
2022-11-02T10:16:33.881Z,4.83
2022-11-02T10:19:11.730Z,4.82
2022-11-02T10:21:44.902Z,4.85
2022-11-02T10:24:26.272Z,4.89
2022-11-02T10:27:02.286Z,4.76
2022-11-02T10:29:45.298Z,4.63
2022-11-02T10:32:19.233Z,4.51
2022-11-02T10:34:59.162Z,4.40
2022-11-02T10:37:37.753Z,4.38
2022-11-02T10:40:19.902Z,4.47
2022-11-02T10:43:03.387Z,4.61
2022-11-02T10:48:49.942Z,4.77
2022-11-02T10:51:24.965Z,4.67
2022-11-02T10:53:58.610Z,4.62
2022-11-02T10:56:34.525Z,4.52
2022-11-02T10:59:13.134Z,4.42
2022-11-02T11:01:51.860Z,4.29
2022-11-02T11:04:27.426Z,4.30
2022-11-02T11:07:03.163Z,4.39
2022-11-02T11:09:44.260Z,4.55
2022-11-02T11:12:21.074Z,4.65
2022-11-02T11:20:26.938Z,4.58
2022-11-02T11:23:22.307Z,4.56
2022-11-02T11:26:01.272Z,4.57
2022-11-02T11:28:37.646Z,4.56
2022-11-02T11:31:14.813Z,4.42
2022-11-02T11:33:51.074Z,4.28
2022-11-02T11:36:28.226Z,4.21
2022-11-02T11:39:04.534Z,4.13
2022-11-02T11:41:40.723Z,4.09
2022-11-02T11:44:17.034Z,4.07
2022-11-02T11:46:53.248Z,3.93
2022-11-02T11:52:03.691Z,3.83
2022-11-02T11:54:37.280Z,3.75
2022-11-02T11:57:25.286Z,3.64
2022-11-02T12:00:01.867Z,3.68
2022-11-02T12:02:43.899Z,3.70
2022-11-02T12:05:18.699Z,3.56
2022-11-02T12:08:20.585Z,3.47
2022-11-02T12:11:04.861Z,3.50
2022-11-02T12:14:03.647Z,3.50
2022-11-02T12:16:42.908Z,3.62
2022-11-02T12:19:22.551Z,3.68
2022-11-02T12:22:02.617Z,3.67
2022-11-02T12:27:47.820Z,3.62
2022-11-02T12:30:23.016Z,3.45
2022-11-02T12:33:12.042Z,3.42
2022-11-02T12:35:54.545Z,3.38
2022-11-02T12:38:56.296Z,3.36
2022-11-02T12:41:47.045Z,3.38
2022-11-02T12:44:31.193Z,3.28
2022-11-02T12:47:08.688Z,3.16
2022-11-02T12:49:46.182Z,3.10
2022-11-02T12:52:27.288Z,3.09
2022-11-02T12:55:03.316Z,3.08
2022-11-02T12:57:39.673Z,3.10
2022-11-02T13:00:22.004Z,3.06
2022-11-02T13:03:01.917Z,3.05
2022-11-02T13:05:39.919Z,2.96
2022-11-02T13:08:13.920Z,2.92
2022-11-02T13:10:53.602Z,2.85
2022-11-02T13:13:27.691Z,2.71
2022-11-02T13:16:02.778Z,2.71
2022-11-02T13:18:39.192Z,2.62
2022-11-02T13:21:15.308Z,2.50
2022-11-02T13:23:51.429Z,2.41
2022-11-02T13:26:30.576Z,2.28
2022-11-02T13:29:08.178Z,2.26
2022-11-02T13:31:44.769Z,2.21
2022-11-02T13:34:21.153Z,2.18
2022-11-02T13:36:54.526Z,2.12
2022-11-02T13:39:30.479Z,2.08
2022-11-02T13:42:30.410Z,2.01
2022-11-02T13:45:59.485Z,1.97
2022-11-02T13:48:51.079Z,1.94
2022-11-02T13:51:32.729Z,1.90
2022-11-02T13:54:09.631Z,1.84
2022-11-02T13:56:43.865Z,1.87
2022-11-02T13:59:25.186Z,1.89
2022-11-02T14:02:01.408Z,1.92
2022-11-02T14:04:42.720Z,1.92
2022-11-02T14:07:24.353Z,1.91
2022-11-02T14:10:02.479Z,1.90
2022-11-02T14:12:46.589Z,1.93
2022-11-02T14:15:56.828Z,1.93
2022-11-02T14:18:31.895Z,1.92
2022-11-02T14:21:42.948Z,1.96
2022-11-02T14:24:50.786Z,1.95
2022-11-02T14:27:33.836Z,1.98
2022-11-02T14:30:11.373Z,1.92
2022-11-02T14:32:53.123Z,1.93
2022-11-02T14:35:33.374Z,1.94
2022-11-02T14:38:41.439Z,1.92
2022-11-02T14:41:22.402Z,1.93
2022-11-02T14:44:17.970Z,1.99
2022-11-02T14:46:57.592Z,2.04
2022-11-02T14:49:33.789Z,2.03
2022-11-02T14:52:10.429Z,1.99
2022-11-02T14:54:49.900Z,1.95
2022-11-02T14:57:26.899Z,1.80
2022-11-02T15:00:02.801Z,1.65
2022-11-02T15:02:42.961Z,1.55
2022-11-02T15:05:24.602Z,1.54
2022-11-02T15:08:02.383Z,1.54
2022-11-02T15:10:45.015Z,1.56
2022-11-02T15:13:50.573Z,1.60
2022-11-02T15:16:29.028Z,1.51
2022-11-02T15:19:37.691Z,1.45
2022-11-02T15:22:39.571Z,1.41
2022-11-02T15:25:17.739Z,1.37
2022-11-02T15:27:53.084Z,1.27
2022-11-02T15:30:28.645Z,1.17
2022-11-02T15:33:05.653Z,1.22
2022-11-02T15:35:40.918Z,1.25
2022-11-02T15:38:17.967Z,1.30
2022-11-02T15:40:57.749Z,1.36
2022-11-02T15:43:58.781Z,1.35
2022-11-02T15:46:40.093Z,1.31
2022-11-02T15:49:20.867Z,1.31
2022-11-02T15:51:57.127Z,1.33
2022-11-02T15:57:43.464Z,1.41
2022-11-02T16:00:17.979Z,1.27
2022-11-02T16:02:53.275Z,1.31
2022-11-02T16:05:29.148Z,1.23
2022-11-02T16:08:10.889Z,1.20
2022-11-02T16:10:38.575Z,1.23
2022-11-02T16:13:20.376Z,1.25
2022-11-02T16:15:56.770Z,1.23
2022-11-02T16:18:36.980Z,1.19
2022-11-02T16:24:00.261Z,1.30
2022-11-02T16:26:34.622Z,1.23
2022-11-02T16:29:12.651Z,1.26
2022-11-02T16:31:46.955Z,1.29
2022-11-02T16:34:22.950Z,1.26
2022-11-02T16:36:57.914Z,1.27
2022-11-02T16:39:35.229Z,1.27
2022-11-02T16:42:11.775Z,1.25
2022-11-02T16:44:47.630Z,1.24
2022-11-02T16:47:24.435Z,1.22
2022-11-02T16:50:01.436Z,1.22
2022-11-02T16:52:37.760Z,1.19
2022-11-02T16:55:42.114Z,1.12
2022-11-02T16:58:20.930Z,1.12
2022-11-02T17:00:59.871Z,1.13
2022-11-02T17:03:35.580Z,1.15
2022-11-02T17:06:09.906Z,1.14
2022-11-02T17:08:45.663Z,1.11
2022-11-02T17:11:20.903Z,1.09
2022-11-02T17:13:57.394Z,1.08
2022-11-02T17:16:35.628Z,1.06
2022-11-02T17:19:15.742Z,1.03
2022-11-02T17:21:50.566Z,0.99
2022-11-02T17:24:35.901Z,0.92
2022-11-02T17:27:23.536Z,0.94
2022-11-02T17:29:56.302Z,0.96
2022-11-02T17:32:30.280Z,1.01
2022-11-02T17:35:05.060Z,0.93
2022-11-02T17:37:39.548Z,0.92
2022-11-02T17:40:15.290Z,0.94
2022-11-02T17:43:02.427Z,0.96
2022-11-02T17:45:38.340Z,0.95
2022-11-02T17:48:12.716Z,0.91
2022-11-02T17:50:48.144Z,0.92
2022-11-02T17:53:21.774Z,0.92
2022-11-02T17:55:56.285Z,0.90
2022-11-02T17:58:30.349Z,0.82
2022-11-02T18:01:04.783Z,0.75
2022-11-02T18:03:38.425Z,0.68
2022-11-02T18:06:12.556Z,0.62
2022-11-02T18:09:04.307Z,0.57
2022-11-02T18:11:37.761Z,0.55
2022-11-02T18:14:18.196Z,0.51
2022-11-02T18:16:52.924Z,0.46
2022-11-02T18:19:26.543Z,0.46
2022-11-02T18:22:00.202Z,0.46
2022-11-02T18:24:34.108Z,0.48
2022-11-02T18:27:07.239Z,0.39
2022-11-02T18:29:40.748Z,0.35
2022-11-02T18:32:15.753Z,0.35
2022-11-02T18:34:49.425Z,0.36
2022-11-02T18:37:23.510Z,0.35
2022-11-02T18:39:57.226Z,0.39
2022-11-02T18:42:30.827Z,0.43
2022-11-02T18:45:05.061Z,0.40
2022-11-02T18:47:39.065Z,0.33
2022-11-02T18:50:14.602Z,0.30
2022-11-02T18:52:49.793Z,0.30
2022-11-02T18:55:23.270Z,0.30
2022-11-02T18:57:56.739Z,0.24
2022-11-02T19:00:29.884Z,0.21
2022-11-02T19:03:03.321Z,0.23
2022-11-02T19:05:54.273Z,0.29
2022-11-02T19:08:45.293Z,0.27
2022-11-02T19:11:18.619Z,0.21
2022-11-02T19:13:52.101Z,0.16
2022-11-02T19:16:25.667Z,0.19
2022-11-02T19:18:59.470Z,0.25
2022-11-02T19:21:33.528Z,0.26
2022-11-02T19:24:08.929Z,0.20
2022-11-02T19:26:42.328Z,0.19
2022-11-02T19:29:16.787Z,0.22
2022-11-02T19:31:50.065Z,0.22
2022-11-02T19:34:24.010Z,0.27
2022-11-02T19:36:57.556Z,0.28
2022-11-02T19:39:31.073Z,0.25
2022-11-02T19:42:08.080Z,0.26
2022-11-02T19:44:42.925Z,0.24
2022-11-02T19:47:16.563Z,0.11
2022-11-02T19:49:50.113Z,0.17
2022-11-02T19:52:23.979Z,0.16
2022-11-02T19:54:57.377Z,0.13
2022-11-02T19:57:33.397Z,0.12
2022-11-02T20:00:07.849Z,0.15
2022-11-02T20:02:41.502Z,0.14
2022-11-02T20:05:14.973Z,0.17
2022-11-02T20:07:48.578Z,0.18
2022-11-02T20:10:22.151Z,0.25
2022-11-02T20:12:55.567Z,0.24
2022-11-02T20:15:28.827Z,0.22
2022-11-02T20:18:18.423Z,0.24
2022-11-02T20:20:37.623Z,0.26
2022-11-02T20:23:10.997Z,0.28
2022-11-02T20:25:44.428Z,0.31
2022-11-02T20:28:17.965Z,0.31
2022-11-02T20:30:51.502Z,0.27
2022-11-02T20:33:26.136Z,0.28
2022-11-02T20:35:59.547Z,0.24
2022-11-02T20:38:33.104Z,0.22
2022-11-02T20:41:09.151Z,0.23
2022-11-02T20:43:43.635Z,0.30
2022-11-02T20:48:53.867Z,0.30
2022-11-02T20:51:27.526Z,0.30
2022-11-02T20:54:03.164Z,0.33
2022-11-02T20:56:36.599Z,0.33
2022-11-02T20:59:10.000Z,0.34
2022-11-02T21:01:43.941Z,0.35
2022-11-02T21:04:21.154Z,0.32
2022-11-02T21:06:53.109Z,0.32
2022-11-02T21:09:26.747Z,0.32
2022-11-02T21:12:17.942Z,0.32
2022-11-02T21:14:51.452Z,0.32
2022-11-02T21:17:25.029Z,0.37
2022-11-02T21:20:14.291Z,0.42
2022-11-02T21:22:34.413Z,0.43
2022-11-02T21:25:10.976Z,0.45
2022-11-02T21:27:44.506Z,0.45
2022-11-02T21:30:18.754Z,0.50
2022-11-02T21:32:53.849Z,0.54
2022-11-02T21:35:27.607Z,0.48
2022-11-02T21:38:03.798Z,0.44
2022-11-02T21:40:36.277Z,0.39
2022-11-02T21:43:09.883Z,0.39
2022-11-02T21:45:55.267Z,0.39
2022-11-02T21:51:05.996Z,0.38
2022-11-02T21:53:41.033Z,0.38
2022-11-02T21:56:15.760Z,0.39
2022-11-02T21:58:49.852Z,0.39
2022-11-02T22:01:42.091Z,0.33
2022-11-02T22:04:19.225Z,0.36
2022-11-02T22:06:53.037Z,0.33
2022-11-02T22:09:27.137Z,0.32
2022-11-02T22:12:17.870Z,0.36
2022-11-02T22:14:51.279Z,0.36
2022-11-02T22:19:59.955Z,0.25
2022-11-02T22:22:34.025Z,0.20
2022-11-02T22:25:08.686Z,0.15
2022-11-02T22:27:43.091Z,0.08
2022-11-02T22:30:17.304Z,0.10
2022-11-02T22:32:50.794Z,0.08
2022-11-02T22:35:24.253Z,0.03
2022-11-02T22:38:15.245Z,0.03
2022-11-02T22:40:48.920Z,0.07
2022-11-02T22:43:22.223Z,0.07
2022-11-02T22:46:03.270Z,0.06
2022-11-02T22:48:37.094Z,0.08
2022-11-02T22:51:11.764Z,0.09
2022-11-02T22:53:45.295Z,0.13
2022-11-02T22:56:19.511Z,0.08
2022-11-02T22:58:53.371Z,0.06
2022-11-02T23:01:28.394Z,0.01
2022-11-02T23:04:02.298Z,0.01
2022-11-02T23:06:35.771Z,0.02
2022-11-02T23:09:10.658Z,-0.03
2022-11-02T23:11:44.943Z,-0.03
2022-11-02T23:14:19.656Z,-0.01
2022-11-02T23:16:53.995Z,-0.05
2022-11-02T23:19:29.487Z,-0.04
2022-11-02T23:22:22.292Z,-0.01
2022-11-02T23:25:16.313Z,0.02
2022-11-02T23:28:09.590Z,-0.05
2022-11-02T23:31:01.075Z,-0.05
2022-11-02T23:33:36.771Z,-0.11
2022-11-02T23:36:16.193Z,-0.13
2022-11-02T23:39:08.420Z,-0.08
2022-11-02T23:41:41.913Z,-0.05
2022-11-02T23:44:15.188Z,-0.07
2022-11-02T23:46:49.772Z,-0.09
2022-11-02T23:49:23.555Z,-0.11
2022-11-02T23:52:14.660Z,-0.14
2022-11-02T23:55:05.706Z,-0.15
2022-11-02T23:57:39.307Z,-0.21
